createdAt,value
2023-01-26T00:00:52.561Z,0.50
2023-01-26T00:03:20.089Z,0.50
2023-01-26T00:05:48.506Z,0.40
2023-01-26T00:08:16.080Z,0.40
2023-01-26T00:10:43.596Z,0.40
2023-01-26T00:13:11.132Z,0.40
2023-01-26T00:15:39.481Z,0.40
2023-01-26T00:18:07.017Z,0.40
2023-01-26T00:20:34.555Z,0.40
2023-01-26T00:23:02.124Z,0.40
2023-01-26T00:25:29.659Z,0.40
2023-01-26T00:27:57.954Z,0.40
2023-01-26T00:30:26.759Z,0.40
2023-01-26T00:32:54.279Z,0.40
2023-01-26T00:35:22.588Z,0.40
2023-01-26T00:37:50.441Z,0.40
2023-01-26T00:40:17.987Z,0.30
2023-01-26T00:42:45.523Z,0.30
2023-01-26T00:45:13.079Z,0.20
2023-01-26T00:47:40.611Z,0.20
2023-01-26T00:50:08.564Z,0.10
2023-01-26T00:52:35.946Z,0.00
2023-01-26T00:55:03.471Z,0.00
2023-01-26T00:57:31.007Z,0.00
2023-01-26T00:59:59.358Z,0.10
2023-01-26T01:02:26.899Z,0.00
2023-01-26T01:04:54.420Z,0.00
2023-01-26T01:07:23.015Z,-0.10
2023-01-26T01:09:50.540Z,0.10
2023-01-26T01:12:18.835Z,0.00
2023-01-26T01:14:46.370Z,0.00
2023-01-26T01:17:14.673Z,-0.10
2023-01-26T01:19:42.218Z,-0.20
2023-01-26T01:22:09.780Z,-0.20
2023-01-26T01:24:37.324Z,-0.30
2023-01-26T01:27:04.857Z,-0.40
2023-01-26T01:29:32.425Z,-0.50
2023-01-26T01:32:00.070Z,-0.60
2023-01-26T01:34:27.523Z,-0.60
2023-01-26T01:36:55.094Z,-0.70
2023-01-26T01:39:22.633Z,-0.80
2023-01-26T01:41:50.161Z,-0.80
2023-01-26T01:44:20.457Z,-0.80
2023-01-26T01:47:03.492Z,-0.90
2023-01-26T01:49:34.469Z,-0.90
2023-01-26T01:52:07.729Z,-1.00
2023-01-26T01:54:46.788Z,-1.00
2023-01-26T01:57:16.973Z,-1.00
2023-01-26T01:59:47.350Z,-1.00
2023-01-26T02:02:14.993Z,-1.00
2023-01-26T02:04:43.251Z,-1.00
2023-01-26T02:07:10.779Z,-1.00
2023-01-26T02:09:57.312Z,-1.00
2023-01-26T02:12:24.827Z,-1.00
2023-01-26T02:14:52.377Z,-1.00
2023-01-26T02:17:19.937Z,-1.00
2023-01-26T02:19:53.217Z,-1.00
2023-01-26T02:22:38.862Z,-1.00
2023-01-26T02:25:06.524Z,-1.00
2023-01-26T02:27:34.067Z,-1.00
2023-01-26T02:30:02.375Z,-1.00
2023-01-26T02:32:29.897Z,-1.10
2023-01-26T02:34:58.247Z,-1.00
2023-01-26T02:37:25.760Z,-1.00
2023-01-26T02:39:56.502Z,-1.00
2023-01-26T02:42:39.296Z,-0.90
2023-01-26T02:45:07.692Z,-0.90
2023-01-26T02:47:35.225Z,-0.90
2023-01-26T02:50:03.674Z,-0.90
2023-01-26T02:52:31.180Z,-0.90
2023-01-26T02:55:17.011Z,-0.90
2023-01-26T02:57:44.563Z,-0.90
2023-01-26T03:00:12.636Z,-0.90
2023-01-26T03:02:39.855Z,-0.90
2023-01-26T03:05:07.440Z,-0.90
2023-01-26T03:07:34.966Z,-0.90
2023-01-26T03:10:02.517Z,-0.90
2023-01-26T03:12:30.041Z,-0.90
2023-01-26T03:15:15.615Z,-1.00
2023-01-26T03:17:43.159Z,-1.00
2023-01-26T03:20:28.692Z,-1.00
2023-01-26T03:23:14.095Z,-0.90
2023-01-26T03:25:59.824Z,-0.90
2023-01-26T03:28:27.341Z,-1.00
2023-01-26T03:30:54.951Z,-1.10
2023-01-26T03:33:23.368Z,-1.00
2023-01-26T03:35:50.892Z,-1.00
2023-01-26T03:38:19.193Z,-1.20
2023-01-26T03:41:04.776Z,-1.20
2023-01-26T03:43:51.325Z,-1.20
2023-01-26T03:46:37.047Z,-1.30
2023-01-26T03:49:22.815Z,-1.30
2023-01-26T03:52:08.503Z,-1.10
2023-01-26T03:54:54.858Z,-0.90
2023-01-26T03:57:22.411Z,-0.90
2023-01-26T03:59:49.956Z,-1.00
2023-01-26T04:02:36.073Z,-0.80
2023-01-26T04:05:21.977Z,-0.80
2023-01-26T04:08:08.557Z,-1.00
2023-01-26T04:10:36.109Z,-1.10
2023-01-26T04:13:21.817Z,-1.20
2023-01-26T04:16:07.539Z,-1.20
2023-01-26T04:18:53.032Z,-1.30
2023-01-26T04:21:27.291Z,-1.20
2023-01-26T04:23:57.688Z,-1.20
2023-01-26T04:26:25.193Z,-1.00
2023-01-26T04:28:52.733Z,-1.00
2023-01-26T04:31:20.778Z,-1.10
2023-01-26T04:33:50.322Z,-1.30
2023-01-26T04:36:17.863Z,-1.30
2023-01-26T04:38:45.388Z,-1.30
2023-01-26T04:41:12.983Z,-1.40
2023-01-26T04:43:40.525Z,-1.40
2023-01-26T04:46:08.163Z,-1.50
2023-01-26T04:48:35.645Z,-1.50
2023-01-26T04:51:03.170Z,-1.60
2023-01-26T04:53:31.478Z,-1.60
2023-01-26T04:55:59.071Z,-1.60
2023-01-26T04:58:26.649Z,-1.70
2023-01-26T05:00:56.930Z,-1.70
2023-01-26T05:03:24.466Z,-1.70
2023-01-26T05:05:52.008Z,-1.50
2023-01-26T05:08:20.318Z,-1.30
2023-01-26T05:10:47.893Z,-1.30
2023-01-26T05:13:15.448Z,-1.30
2023-01-26T05:15:43.032Z,-1.50
2023-01-26T05:18:10.603Z,-1.60
2023-01-26T05:20:38.159Z,-1.60
2023-01-26T05:23:05.702Z,-1.70
2023-01-26T05:25:33.291Z,-1.80
2023-01-26T05:28:00.824Z,-1.80
2023-01-26T05:30:28.357Z,-1.90
2023-01-26T05:32:55.925Z,-1.90
2023-01-26T05:35:23.471Z,-1.90
2023-01-26T05:37:51.015Z,-1.90
2023-01-26T05:40:18.607Z,-1.90
2023-01-26T05:42:46.151Z,-1.90
2023-01-26T05:45:13.712Z,-1.90
2023-01-26T05:47:41.263Z,-1.90
2023-01-26T05:50:09.134Z,-1.90
2023-01-26T05:52:36.519Z,-1.90
2023-01-26T05:55:04.067Z,-1.90
2023-01-26T05:57:31.589Z,-1.90
2023-01-26T05:59:59.127Z,-1.90
2023-01-26T06:02:30.049Z,-1.90
2023-01-26T06:04:57.516Z,-1.90
2023-01-26T06:07:25.850Z,-2.00
2023-01-26T06:09:53.449Z,-2.00
2023-01-26T06:12:21.034Z,-2.00
2023-01-26T06:14:48.513Z,-2.00
2023-01-26T06:17:16.101Z,-2.10
2023-01-26T06:19:43.669Z,-2.10
2023-01-26T06:22:11.171Z,-2.20
2023-01-26T06:24:38.776Z,-1.90
2023-01-26T06:27:06.348Z,-2.00
2023-01-26T06:29:33.881Z,-1.70
2023-01-26T06:32:01.442Z,-1.50
2023-01-26T06:34:28.996Z,-1.30
2023-01-26T06:36:56.528Z,-1.40
2023-01-26T06:39:24.099Z,-1.60
2023-01-26T06:41:51.633Z,-1.70
2023-01-26T06:44:19.159Z,-1.80
2023-01-26T06:46:46.733Z,-1.90
2023-01-26T06:49:14.270Z,-2.00
2023-01-26T06:51:44.568Z,-1.90
2023-01-26T06:54:12.133Z,-2.00
2023-01-26T06:56:39.660Z,-2.10
2023-01-26T06:59:07.964Z,-2.20
2023-01-26T07:01:35.541Z,-2.20
2023-01-26T07:04:03.053Z,-2.20
2023-01-26T07:06:30.622Z,-2.30
2023-01-26T07:08:58.172Z,-2.30
2023-01-26T07:11:25.706Z,-2.40
2023-01-26T07:13:53.258Z,-2.40
2023-01-26T07:16:20.829Z,-2.40
2023-01-26T07:18:48.337Z,-2.50
2023-01-26T07:21:15.887Z,-2.50
2023-01-26T07:23:43.494Z,-2.40
2023-01-26T07:26:11.025Z,-2.50
2023-01-26T07:28:40.212Z,-2.60
2023-01-26T07:31:06.214Z,-2.70
2023-01-26T07:33:33.684Z,-2.70
2023-01-26T07:36:01.213Z,-2.80
2023-01-26T07:38:29.573Z,-2.90
2023-01-26T07:40:57.149Z,-2.90
2023-01-26T07:43:24.685Z,-2.90
2023-01-26T07:45:52.228Z,-2.90
2023-01-26T07:48:19.772Z,-2.90
2023-01-26T07:50:47.314Z,-2.90
2023-01-26T07:53:17.535Z,-2.80
2023-01-26T07:55:45.085Z,-2.80
2023-01-26T07:58:13.367Z,-2.70
2023-01-26T08:00:40.968Z,-2.70
2023-01-26T08:03:08.557Z,-2.60
2023-01-26T08:05:36.024Z,-2.60
2023-01-26T08:08:04.359Z,-2.50
2023-01-26T08:10:31.955Z,-2.60
2023-01-26T08:12:59.410Z,-2.50
2023-01-26T08:15:27.832Z,-2.40
2023-01-26T08:17:55.356Z,-2.40
2023-01-26T08:20:22.952Z,-2.30
2023-01-26T08:22:50.557Z,-2.30
2023-01-26T08:25:18.118Z,-2.20
2023-01-26T08:27:45.650Z,-2.20
2023-01-26T08:30:13.603Z,-1.90
2023-01-26T08:32:40.774Z,-1.60
2023-01-26T08:35:08.444Z,-1.60
2023-01-26T08:37:36.081Z,-1.40
2023-01-26T08:40:03.602Z,-1.10
2023-01-26T08:42:31.891Z,-1.00
2023-01-26T08:44:59.485Z,-1.00
2023-01-26T08:47:27.037Z,-1.10
2023-01-26T08:49:54.555Z,-1.20
2023-01-26T08:52:22.124Z,-1.30
2023-01-26T08:54:49.667Z,-1.40
2023-01-26T08:57:17.963Z,-1.40
2023-01-26T08:59:45.551Z,-1.50
2023-01-26T09:02:13.145Z,-1.40
2023-01-26T09:04:40.630Z,-1.40
2023-01-26T09:07:08.207Z,-1.40
2023-01-26T09:09:35.759Z,-1.30
2023-01-26T09:12:03.308Z,-1.30
2023-01-26T09:14:31.627Z,-1.30
2023-01-26T09:16:59.161Z,-1.30
2023-01-26T09:19:26.708Z,-1.30
2023-01-26T09:21:54.289Z,-1.00
2023-01-26T09:24:21.872Z,-1.00
2023-01-26T09:26:49.376Z,-1.00
2023-01-26T09:29:16.969Z,-1.00
2023-01-26T09:31:44.614Z,-1.00
2023-01-26T09:34:12.034Z,-1.00
2023-01-26T09:36:41.488Z,-1.00
2023-01-26T09:39:07.129Z,-1.10
2023-01-26T09:41:37.211Z,-1.10
2023-01-26T09:44:10.391Z,-1.10
2023-01-26T09:47:01.956Z,-0.90
2023-01-26T09:49:44.471Z,-0.90
2023-01-26T09:52:14.938Z,-0.90
2023-01-26T09:54:48.243Z,-0.90
2023-01-26T09:57:15.779Z,-0.70
2023-01-26T09:59:50.282Z,-0.70
2023-01-26T10:02:23.896Z,-0.70
2023-01-26T10:04:51.394Z,-0.70
2023-01-26T10:07:18.923Z,-0.70
2023-01-26T10:09:46.514Z,-0.70
2023-01-26T10:12:28.746Z,-0.70
2023-01-26T10:15:01.783Z,-0.50
2023-01-26T10:17:32.535Z,-0.20
2023-01-26T10:20:09.012Z,-0.20
2023-01-26T10:22:39.253Z,-0.20
2023-01-26T10:25:15.873Z,-0.30
2023-01-26T10:27:44.171Z,-0.30
2023-01-26T10:30:14.849Z,-0.30
2023-01-26T10:32:45.148Z,-0.30
2023-01-26T10:35:18.467Z,-0.40
2023-01-26T10:37:45.980Z,-0.40
2023-01-26T10:40:13.583Z,-0.40
2023-01-26T10:42:41.116Z,-0.40
2023-01-26T10:45:08.781Z,-0.40
2023-01-26T10:47:36.365Z,-0.20
2023-01-26T10:50:22.268Z,-0.10
2023-01-26T10:52:58.512Z,-0.10
2023-01-26T10:55:26.036Z,0.20
2023-01-26T10:57:53.579Z,0.20
2023-01-26T11:00:31.667Z,0.20
2023-01-26T11:03:04.461Z,0.10
2023-01-26T11:05:31.996Z,0.10
2023-01-26T11:07:59.522Z,0.10
2023-01-26T11:10:27.062Z,0.10
2023-01-26T11:13:06.691Z,0.10
2023-01-26T11:15:36.638Z,0.20
2023-01-26T11:18:04.162Z,0.20
2023-01-26T11:20:37.518Z,0.30
2023-01-26T11:23:10.683Z,0.30
2023-01-26T11:25:56.347Z,0.40
2023-01-26T11:28:33.007Z,0.40
2023-01-26T11:31:06.754Z,0.50
2023-01-26T11:33:45.674Z,0.50
2023-01-26T11:36:19.051Z,0.50
2023-01-26T11:38:49.206Z,0.60
2023-01-26T11:41:19.194Z,0.60
2023-01-26T11:43:59.724Z,0.60
2023-01-26T11:46:47.763Z,0.70
2023-01-26T11:49:15.336Z,0.70
2023-01-26T11:52:04.345Z,0.70
2023-01-26T11:54:43.782Z,0.70
2023-01-26T11:57:23.074Z,0.80
2023-01-26T12:00:02.768Z,0.80
2023-01-26T12:02:34.222Z,1.10
2023-01-26T12:05:01.678Z,1.10
2023-01-26T12:07:36.134Z,1.10
2023-01-26T12:10:03.673Z,1.10
2023-01-26T12:12:49.700Z,1.10
2023-01-26T12:15:17.254Z,1.10
2023-01-26T12:18:05.890Z,1.10
2023-01-26T12:20:39.214Z,1.10
2023-01-26T12:23:06.744Z,1.10
2023-01-26T12:25:37.504Z,1.10
2023-01-26T12:28:11.271Z,1.10
2023-01-26T12:30:42.359Z,1.10
2023-01-26T12:33:09.817Z,1.10
2023-01-26T12:35:45.921Z,1.20
2023-01-26T12:38:34.952Z,1.30
2023-01-26T12:41:14.333Z,1.20
2023-01-26T12:43:44.910Z,1.30
2023-01-26T12:46:12.508Z,1.40
2023-01-26T12:48:42.981Z,1.40
2023-01-26T12:51:12.964Z,1.70
2023-01-26T12:53:40.512Z,1.70
2023-01-26T12:56:29.721Z,1.80
2023-01-26T12:58:57.250Z,1.70
2023-01-26T13:01:24.820Z,1.80
2023-01-26T13:03:52.361Z,1.80
2023-01-26T13:06:20.700Z,1.80
2023-01-26T13:08:50.934Z,1.80
2023-01-26T13:11:39.746Z,1.90
2023-01-26T13:14:07.271Z,1.90
2023-01-26T13:16:35.573Z,1.90
2023-01-26T13:19:03.194Z,1.90
2023-01-26T13:21:39.935Z,1.90
2023-01-26T13:24:19.647Z,1.90
2023-01-26T13:26:49.934Z,2.20
2023-01-26T13:29:26.334Z,2.20
2023-01-26T13:31:56.799Z,2.10
2023-01-26T13:34:24.327Z,2.10
2023-01-26T13:36:51.940Z,2.20
2023-01-26T13:39:28.720Z,2.20
2023-01-26T13:41:56.261Z,2.20
2023-01-26T13:44:23.835Z,2.20
2023-01-26T13:46:56.823Z,2.20
2023-01-26T13:49:27.227Z,2.20
2023-01-26T13:51:54.804Z,2.50
2023-01-26T13:54:22.334Z,2.50
2023-01-26T13:57:01.901Z,2.50
2023-01-26T13:59:29.445Z,2.70
2023-01-26T14:01:57.072Z,2.70
2023-01-26T14:04:24.560Z,2.90
2023-01-26T14:07:03.982Z,2.80
2023-01-26T14:09:31.563Z,2.80
2023-01-26T14:11:59.108Z,2.70
2023-01-26T14:14:35.469Z,2.60
2023-01-26T14:17:03.099Z,2.80
2023-01-26T14:19:30.611Z,2.80
2023-01-26T14:21:58.136Z,2.70
2023-01-26T14:24:25.781Z,2.90
2023-01-26T14:26:53.278Z,3.10
2023-01-26T14:29:23.522Z,3.10
2023-01-26T14:31:51.469Z,3.00
2023-01-26T14:34:21.975Z,2.90
2023-01-26T14:36:49.485Z,2.80
2023-01-26T14:39:17.820Z,2.60
2023-01-26T14:41:45.364Z,2.60
2023-01-26T14:44:12.900Z,2.60
2023-01-26T14:47:05.596Z,2.50
2023-01-26T14:49:51.098Z,2.50
2023-01-26T14:52:18.675Z,2.50
2023-01-26T14:54:47.004Z,2.40
2023-01-26T14:57:14.512Z,2.40
2023-01-26T14:59:42.870Z,2.30
2023-01-26T15:02:19.036Z,2.30
2023-01-26T15:04:49.317Z,2.30
2023-01-26T15:07:35.248Z,2.20
2023-01-26T15:10:02.910Z,2.20
2023-01-26T15:12:34.106Z,2.10
2023-01-26T15:15:01.618Z,2.10
2023-01-26T15:17:38.256Z,2.10
2023-01-26T15:20:24.155Z,2.10
2023-01-26T15:22:52.096Z,2.10
2023-01-26T15:25:25.588Z,2.40
2023-01-26T15:27:58.532Z,2.50
2023-01-26T15:30:29.634Z,2.50
2023-01-26T15:32:57.205Z,2.50
2023-01-26T15:35:30.421Z,2.40
2023-01-26T15:38:03.988Z,2.60
2023-01-26T15:40:31.505Z,2.70
2023-01-26T15:43:05.520Z,2.50
2023-01-26T15:45:33.103Z,2.50
2023-01-26T15:48:00.637Z,2.50
2023-01-26T15:50:28.937Z,2.40
2023-01-26T15:52:56.537Z,2.40
2023-01-26T15:55:30.106Z,2.30
2023-01-26T15:57:57.619Z,2.30
2023-01-26T16:00:25.944Z,2.30
2023-01-26T16:02:53.476Z,2.20
2023-01-26T16:05:21.000Z,2.30
2023-01-26T16:07:49.372Z,2.30
2023-01-26T16:10:16.927Z,2.30
2023-01-26T16:12:44.450Z,2.30
2023-01-26T16:15:35.988Z,2.60
2023-01-26T16:18:04.248Z,2.80
2023-01-26T16:20:31.786Z,2.80
2023-01-26T16:23:00.488Z,2.70
2023-01-26T16:25:31.127Z,2.70
2023-01-26T16:27:58.667Z,2.70
2023-01-26T16:30:26.230Z,2.60
2023-01-26T16:32:53.763Z,2.60
2023-01-26T16:35:22.083Z,2.60
2023-01-26T16:37:50.045Z,2.50
2023-01-26T16:40:17.604Z,2.50
2023-01-26T16:42:45.111Z,2.50
2023-01-26T16:45:19.675Z,2.50
2023-01-26T16:47:47.210Z,2.50
2023-01-26T16:50:14.735Z,2.50
2023-01-26T16:52:42.358Z,2.50
2023-01-26T16:55:10.137Z,2.50
2023-01-26T16:57:38.195Z,2.90
2023-01-26T17:00:05.897Z,2.90
2023-01-26T17:02:33.484Z,2.90
2023-01-26T17:05:00.941Z,2.90
2023-01-26T17:07:29.331Z,3.10
2023-01-26T17:09:56.833Z,3.10
2023-01-26T17:12:24.357Z,3.00
2023-01-26T17:14:52.038Z,2.90
2023-01-26T17:17:19.458Z,2.80
2023-01-26T17:19:47.767Z,2.70
2023-01-26T17:22:15.334Z,2.60
2023-01-26T17:24:42.883Z,2.60
2023-01-26T17:27:13.097Z,2.50
2023-01-26T17:29:40.658Z,2.50
2023-01-26T17:32:08.191Z,2.40
2023-01-26T17:34:35.785Z,2.40
2023-01-26T17:37:03.347Z,2.40
2023-01-26T17:39:30.883Z,2.40
2023-01-26T17:41:58.416Z,2.40
2023-01-26T17:44:26.841Z,2.30
2023-01-26T17:46:54.401Z,2.30
2023-01-26T17:49:21.939Z,2.30
2023-01-26T17:51:49.495Z,2.30
2023-01-26T17:54:17.018Z,2.30
2023-01-26T17:56:44.563Z,2.30
2023-01-26T17:59:12.138Z,2.30
2023-01-26T18:01:39.683Z,2.20
2023-01-26T18:04:07.217Z,2.20
2023-01-26T18:06:34.799Z,2.20
2023-01-26T18:09:02.333Z,2.50
2023-01-26T18:11:29.871Z,2.50
2023-01-26T18:13:57.437Z,2.50
2023-01-26T18:16:24.980Z,2.50
2023-01-26T18:18:55.435Z,2.50
2023-01-26T18:21:23.065Z,2.40
2023-01-26T18:23:51.409Z,2.50
2023-01-26T18:26:18.922Z,2.50
2023-01-26T18:28:46.528Z,2.50
2023-01-26T18:31:14.044Z,2.50
2023-01-26T18:33:41.597Z,2.60
2023-01-26T18:36:09.175Z,2.60
2023-01-26T18:38:36.687Z,2.60
2023-01-26T18:41:04.986Z,2.70
2023-01-26T18:43:35.227Z,2.60
2023-01-26T18:46:05.466Z,2.90
2023-01-26T18:48:32.953Z,2.90
2023-01-26T18:51:00.801Z,2.90
2023-01-26T18:53:28.338Z,2.80
2023-01-26T18:56:01.902Z,2.80
2023-01-26T18:58:30.128Z,2.70
2023-01-26T19:00:57.003Z,2.70
2023-01-26T19:03:25.286Z,2.60
2023-01-26T19:05:54.230Z,2.60
2023-01-26T19:08:24.707Z,2.60
2023-01-26T19:10:52.232Z,2.60
2023-01-26T19:13:19.801Z,2.50
2023-01-26T19:15:47.331Z,2.50
2023-01-26T19:18:14.863Z,2.70
2023-01-26T19:20:42.436Z,2.70
2023-01-26T19:23:09.987Z,3.00
2023-01-26T19:25:37.597Z,3.00
2023-01-26T19:28:05.446Z,2.90
2023-01-26T19:30:33.009Z,2.80
2023-01-26T19:33:18.658Z,2.80
2023-01-26T19:35:46.211Z,2.70
2023-01-26T19:38:13.731Z,2.70
2023-01-26T19:40:42.451Z,2.70
2023-01-26T19:43:09.995Z,2.60
2023-01-26T19:45:37.570Z,2.70
2023-01-26T19:48:05.878Z,2.70
2023-01-26T19:50:33.404Z,2.70
2023-01-26T19:53:00.932Z,2.70
2023-01-26T19:55:29.271Z,3.00
2023-01-26T19:57:56.804Z,3.00
2023-01-26T20:00:24.336Z,3.00
2023-01-26T20:02:52.672Z,3.30
2023-01-26T20:05:20.210Z,3.30
2023-01-26T20:07:47.755Z,3.20
2023-01-26T20:10:15.336Z,3.20
2023-01-26T20:12:42.879Z,3.20
2023-01-26T20:15:10.645Z,3.20
2023-01-26T20:17:38.117Z,3.20
2023-01-26T20:20:05.761Z,3.20
2023-01-26T20:22:33.298Z,3.10
2023-01-26T20:25:00.879Z,3.10
2023-01-26T20:27:28.383Z,3.10
2023-01-26T20:29:55.907Z,3.10
2023-01-26T20:32:23.481Z,3.10
2023-01-26T20:34:51.012Z,3.10
2023-01-26T20:37:18.554Z,3.10
2023-01-26T20:39:47.104Z,3.10
2023-01-26T20:42:14.423Z,3.10
2023-01-26T20:44:43.453Z,3.10
2023-01-26T20:47:09.543Z,3.10
2023-01-26T20:49:37.079Z,3.10
2023-01-26T20:52:04.618Z,3.10
2023-01-26T20:54:33.071Z,3.10
2023-01-26T20:57:00.609Z,3.10
2023-01-26T20:59:28.152Z,3.10
2023-01-26T21:01:55.743Z,3.10
2023-01-26T21:04:23.271Z,3.00
2023-01-26T21:06:50.792Z,3.00
2023-01-26T21:09:18.379Z,3.00
2023-01-26T21:11:45.894Z,3.10
2023-01-26T21:14:14.210Z,3.10
2023-01-26T21:16:41.865Z,3.10
2023-01-26T21:19:09.331Z,3.10
2023-01-26T21:21:36.863Z,3.20
2023-01-26T21:24:04.487Z,3.20
2023-01-26T21:26:31.996Z,3.20
2023-01-26T21:28:59.569Z,3.20
2023-01-26T21:31:27.143Z,3.30
2023-01-26T21:33:54.737Z,3.20
2023-01-26T21:36:22.280Z,3.20
2023-01-26T21:38:49.849Z,3.10
2023-01-26T21:41:35.937Z,3.20
2023-01-26T21:44:03.499Z,3.20
2023-01-26T21:46:31.026Z,3.20
2023-01-26T21:48:58.573Z,3.40
2023-01-26T21:51:44.386Z,3.70
2023-01-26T21:54:11.982Z,3.70
2023-01-26T21:56:40.325Z,3.60
2023-01-26T21:59:08.189Z,3.60
2023-01-26T22:01:35.717Z,3.60
2023-01-26T22:04:03.308Z,3.50
2023-01-26T22:06:30.845Z,3.50
2023-01-26T22:09:01.060Z,3.50
2023-01-26T22:11:28.608Z,3.50
2023-01-26T22:13:57.842Z,3.50
2023-01-26T22:16:25.411Z,3.50
2023-01-26T22:18:52.917Z,3.50
2023-01-26T22:21:21.411Z,3.50
2023-01-26T22:23:48.980Z,3.50
2023-01-26T22:26:17.255Z,3.50
2023-01-26T22:28:44.828Z,3.50
2023-01-26T22:31:12.468Z,3.50
2023-01-26T22:33:39.903Z,3.50
2023-01-26T22:36:08.235Z,3.50
2023-01-26T22:38:35.775Z,3.50
2023-01-26T22:41:03.335Z,3.50
2023-01-26T22:43:31.200Z,3.50
2023-01-26T22:46:04.228Z,3.50
2023-01-26T22:48:31.752Z,3.50
2023-01-26T22:50:59.307Z,3.50
2023-01-26T22:53:26.844Z,3.50
2023-01-26T22:55:54.376Z,3.50
2023-01-26T22:58:21.926Z,3.50
2023-01-26T23:00:50.246Z,3.40
2023-01-26T23:03:17.763Z,3.50
2023-01-26T23:05:45.686Z,3.40
2023-01-26T23:08:13.232Z,3.40
2023-01-26T23:10:40.767Z,3.40
2023-01-26T23:13:08.341Z,3.30
2023-01-26T23:15:35.858Z,3.30
2023-01-26T23:18:03.392Z,3.30
2023-01-26T23:20:30.957Z,3.30
2023-01-26T23:22:58.482Z,3.30
2023-01-26T23:25:43.926Z,3.30
2023-01-26T23:28:12.220Z,3.60
2023-01-26T23:30:39.758Z,3.60
2023-01-26T23:33:07.299Z,3.60
2023-01-26T23:35:34.834Z,3.60
2023-01-26T23:38:02.374Z,3.60
2023-01-26T23:40:29.980Z,3.80
2023-01-26T23:43:14.294Z,3.80
2023-01-26T23:45:25.041Z,3.80
2023-01-26T23:47:52.627Z,4.00
2023-01-26T23:50:20.167Z,4.00
2023-01-26T23:52:47.702Z,3.90
2023-01-26T23:55:16.076Z,3.80
2023-01-26T23:57:43.647Z,3.80
